Search for airport 
image banner adimage banner adimage banner ad
image banner ad

KMAE - Madera Muni

Located in Madera, United States

ICAO - MAE, IATA - MAE

Data provided by Airmate  

General information

Coordinates: N36°59'19" W120°6'45"
Elevation is 255 feet MSL.
Magnetic variation is 13° East
View others Airports in California

Operational data

Special qualification required
Current time UTC:
Current local time:
Weather
METAR: KMAE 211253Z AUTO 27005KT 10SM CLR 17/12 A2984 RMK AO2 SLP100 T01670117
View NOTAMs / SUP AIP / TFR affecting this airport [VIEW]
Communications frequencies: [VIEW]

Runways:

RWY identifierQFULength (ft)Width (ft)SurfaceLDA (ft)
12135°5545150ASPH
30315°5545150ASPH

Airport contact information

Address: Madera United States

Satellite view of KMAE